createdAt,value
2022-10-23T00:01:16.286Z,12.87
2022-10-23T00:03:43.178Z,12.85
2022-10-23T00:06:09.859Z,12.88
2022-10-23T00:08:36.472Z,12.86
2022-10-23T00:11:09.748Z,12.83
2022-10-23T00:13:36.197Z,12.94
2022-10-23T00:16:02.865Z,12.94
2022-10-23T00:18:29.316Z,12.76
2022-10-23T00:20:56.261Z,12.85
2022-10-23T00:23:22.815Z,12.93
2022-10-23T00:25:49.426Z,12.89
2022-10-23T00:28:15.879Z,12.90
2022-10-23T00:30:42.477Z,12.83
2022-10-23T00:33:10.227Z,12.94
2022-10-23T00:35:40.556Z,12.97
2022-10-23T00:38:07.790Z,12.94
2022-10-23T00:40:35.345Z,12.86
2022-10-23T00:43:02.262Z,12.85
2022-10-23T00:45:33.575Z,12.82
2022-10-23T00:48:01.373Z,12.77
2022-10-23T00:50:30.400Z,12.81
2022-10-23T00:52:59.956Z,12.82
2022-10-23T00:55:26.959Z,12.81
2022-10-23T00:57:53.619Z,12.83
2022-10-23T01:00:40.298Z,12.76
2022-10-23T01:03:07.051Z,12.69
2022-10-23T01:05:41.532Z,12.71
2022-10-23T01:08:15.408Z,12.76
2022-10-23T01:10:47.801Z,12.73
2022-10-23T01:13:43.438Z,12.72
2022-10-23T01:16:24.184Z,12.70
2022-10-23T01:19:17.049Z,12.68
2022-10-23T01:22:13.418Z,12.51
2022-10-23T01:24:46.047Z,12.55
2022-10-23T01:27:34.589Z,12.58
2022-10-23T01:30:03.650Z,12.59
2022-10-23T01:32:48.242Z,12.64
2022-10-23T01:35:24.057Z,12.63
2022-10-23T01:38:18.390Z,12.61
2022-10-23T01:40:49.442Z,12.60
2022-10-23T01:43:20.364Z,12.59
2022-10-23T01:45:50.972Z,12.55
2022-10-23T01:48:20.499Z,12.67
2022-10-23T01:50:47.351Z,12.62
2022-10-23T01:53:13.852Z,12.73
2022-10-23T01:58:13.955Z,12.74
2022-10-23T02:00:41.513Z,12.70
2022-10-23T02:03:08.936Z,12.62
2022-10-23T02:05:35.709Z,12.63
2022-10-23T02:08:02.854Z,12.48
2022-10-23T02:10:42.023Z,12.59
2022-10-23T02:13:26.282Z,12.51
2022-10-23T02:16:04.049Z,12.45
2022-10-23T02:19:12.382Z,12.51
2022-10-23T02:21:48.659Z,12.46
2022-10-23T02:24:17.974Z,12.47
2022-10-23T02:27:05.222Z,12.23
2022-10-23T02:29:35.782Z,12.36
2022-10-23T02:32:02.322Z,12.34
2022-10-23T02:34:28.802Z,12.34
2022-10-23T02:36:55.272Z,12.26
2022-10-23T02:39:24.140Z,12.29
2022-10-23T02:41:56.435Z,12.29
2022-10-23T02:44:28.671Z,12.24
2022-10-23T02:47:33.691Z,12.41
2022-10-23T02:50:05.800Z,12.31
2022-10-23T02:53:03.605Z,12.20
2022-10-23T02:55:45.215Z,12.14
2022-10-23T02:58:28.417Z,12.05
2022-10-23T03:01:00.119Z,11.91
2022-10-23T03:03:36.533Z,11.86
2022-10-23T03:06:03.299Z,11.88
2022-10-23T03:08:29.760Z,12.12
2022-10-23T03:10:56.330Z,12.38
2022-10-23T03:13:23.372Z,12.34
2022-10-23T03:15:49.811Z,12.08
2022-10-23T03:18:16.271Z,11.94
2022-10-23T03:20:42.700Z,11.73
2022-10-23T03:23:12.440Z,11.76
2022-10-23T03:25:38.948Z,11.69
2022-10-23T03:28:05.380Z,11.69
2022-10-23T03:30:32.046Z,11.68
2022-10-23T03:32:58.599Z,11.75
2022-10-23T03:35:25.029Z,11.94
2022-10-23T03:37:51.461Z,11.95
2022-10-23T03:40:17.922Z,12.01
2022-10-23T03:42:44.338Z,11.94
2022-10-23T03:45:10.763Z,11.87
2022-10-23T03:47:41.347Z,11.79
2022-10-23T03:50:09.477Z,11.67
2022-10-23T03:52:35.913Z,11.94
2022-10-23T03:55:02.634Z,11.88
2022-10-23T03:57:29.086Z,11.77
2022-10-23T03:59:55.590Z,11.63
2022-10-23T04:02:22.181Z,11.79
2022-10-23T04:04:48.684Z,11.90
2022-10-23T04:07:15.127Z,11.72
2022-10-23T04:09:41.619Z,11.74
2022-10-23T04:12:09.334Z,11.76
2022-10-23T04:14:35.772Z,11.66
2022-10-23T04:17:02.232Z,11.67
2022-10-23T04:19:28.657Z,11.63
2022-10-23T04:21:55.163Z,11.68
2022-10-23T04:24:21.620Z,11.81
2022-10-23T04:26:48.048Z,11.88
2022-10-23T04:29:14.494Z,11.98
2022-10-23T04:31:40.950Z,11.91
2022-10-23T04:34:07.396Z,12.22
2022-10-23T04:36:33.948Z,12.28
2022-10-23T04:39:00.478Z,12.22
2022-10-23T04:41:27.054Z,12.09
2022-10-23T04:43:53.470Z,12.02
2022-10-23T04:46:20.065Z,11.94
2022-10-23T04:48:46.497Z,11.84
2022-10-23T04:51:16.040Z,12.08
2022-10-23T04:53:42.495Z,12.02
2022-10-23T04:56:13.862Z,11.96
2022-10-23T04:58:41.279Z,11.91
2022-10-23T05:01:10.609Z,11.85
2022-10-23T05:03:38.041Z,12.14
2022-10-23T05:06:05.394Z,12.13
2022-10-23T05:08:32.356Z,12.08
2022-10-23T05:10:58.923Z,12.22
2022-10-23T05:13:25.486Z,12.13
2022-10-23T05:15:52.242Z,12.13
2022-10-23T05:18:23.251Z,12.26
2022-10-23T05:20:53.480Z,12.27
2022-10-23T05:23:21.234Z,12.14
2022-10-23T05:25:47.662Z,12.10
2022-10-23T05:28:14.129Z,12.03
2022-10-23T05:30:40.589Z,11.79
2022-10-23T05:33:07.032Z,11.66
2022-10-23T05:35:33.774Z,11.59
2022-10-23T05:38:02.044Z,11.54
2022-10-23T05:40:28.611Z,11.59
2022-10-23T05:42:55.249Z,11.55
2022-10-23T05:45:21.882Z,11.90
2022-10-23T05:47:49.240Z,12.05
2022-10-23T05:50:15.845Z,11.73
2022-10-23T05:52:42.682Z,11.91
2022-10-23T05:55:09.860Z,12.08
2022-10-23T05:57:36.415Z,11.95
2022-10-23T06:00:03.241Z,11.92
2022-10-23T06:02:29.770Z,11.75
2022-10-23T06:04:56.301Z,12.04
2022-10-23T06:07:27.705Z,12.18
2022-10-23T06:09:56.420Z,12.15
2022-10-23T06:12:23.273Z,12.10
2022-10-23T06:14:50.978Z,12.07
2022-10-23T06:17:18.418Z,12.08
2022-10-23T06:19:46.118Z,12.20
2022-10-23T06:22:12.684Z,12.41
2022-10-23T06:24:39.188Z,12.45
2022-10-23T06:27:05.693Z,12.61
2022-10-23T06:29:35.470Z,12.68
2022-10-23T06:32:02.252Z,12.79
2022-10-23T06:34:28.706Z,12.67
2022-10-23T06:36:55.166Z,12.92
2022-10-23T06:39:22.198Z,12.84
2022-10-23T06:41:48.673Z,12.96
2022-10-23T06:44:15.132Z,13.06
2022-10-23T06:46:41.627Z,13.16
2022-10-23T06:49:08.137Z,13.20
2022-10-23T06:51:34.600Z,13.25
2022-10-23T06:54:01.070Z,13.24
2022-10-23T06:56:29.306Z,13.25
2022-10-23T06:58:56.569Z,13.26
2022-10-23T07:01:23.120Z,13.26
2022-10-23T07:03:49.669Z,13.31
2022-10-23T07:06:16.162Z,13.31
2022-10-23T07:08:42.651Z,13.33
2022-10-23T07:11:11.079Z,13.40
2022-10-23T07:13:38.631Z,13.34
2022-10-23T07:16:32.049Z,13.34
2022-10-23T07:19:01.098Z,13.31
2022-10-23T07:21:29.822Z,13.38
2022-10-23T07:23:57.846Z,13.45
2022-10-23T07:26:24.704Z,13.54
2022-10-23T07:28:55.057Z,13.57
2022-10-23T07:31:28.028Z,13.55
2022-10-23T07:33:55.964Z,13.62
2022-10-23T07:36:22.513Z,13.56
2022-10-23T07:38:49.045Z,13.74
2022-10-23T07:41:16.017Z,13.77
2022-10-23T07:43:42.583Z,13.84
2022-10-23T07:46:10.004Z,13.95
2022-10-23T07:48:38.258Z,13.92
2022-10-23T07:51:08.570Z,14.05
2022-10-23T07:53:53.713Z,14.07
2022-10-23T07:56:26.339Z,14.04
2022-10-23T07:58:56.028Z,14.13
2022-10-23T08:01:33.233Z,14.01
2022-10-23T08:04:00.384Z,14.27
2022-10-23T08:06:27.156Z,14.21
2022-10-23T08:08:53.663Z,14.21
2022-10-23T08:11:26.706Z,14.22
2022-10-23T08:13:54.501Z,14.29
2022-10-23T08:16:21.771Z,14.38
2022-10-23T08:18:49.577Z,14.30
2022-10-23T08:21:16.986Z,14.30
2022-10-23T08:23:44.144Z,14.32
2022-10-23T08:26:11.471Z,14.45
2022-10-23T08:28:39.221Z,14.51
2022-10-23T08:31:18.263Z,14.41
2022-10-23T08:33:44.948Z,14.48
2022-10-23T08:36:26.050Z,14.58
2022-10-23T08:38:54.448Z,14.46
2022-10-23T08:42:06.053Z,14.44
2022-10-23T08:44:48.765Z,14.46
2022-10-23T08:47:19.967Z,14.51
2022-10-23T08:49:50.246Z,14.51
2022-10-23T08:52:19.733Z,14.63
2022-10-23T08:54:54.628Z,14.77
2022-10-23T08:57:24.069Z,14.74
2022-10-23T08:59:59.320Z,14.64
2022-10-23T09:02:30.708Z,14.72
2022-10-23T09:04:58.100Z,14.82
2022-10-23T09:07:42.134Z,14.84
2022-10-23T09:10:24.039Z,14.80
2022-10-23T09:12:50.620Z,14.62
2022-10-23T09:15:28.390Z,14.57
2022-10-23T09:18:04.784Z,14.62
2022-10-23T09:20:35.580Z,14.55
2022-10-23T09:23:08.040Z,14.59
2022-10-23T09:25:37.859Z,14.55
2022-10-23T09:28:05.702Z,14.48
2022-10-23T09:30:39.434Z,14.59
2022-10-23T09:33:15.155Z,14.61
2022-10-23T09:35:53.324Z,14.63
2022-10-23T09:38:36.208Z,14.63
2022-10-23T09:41:28.983Z,14.54
2022-10-23T09:44:07.693Z,14.69
2022-10-23T09:46:45.716Z,14.65
2022-10-23T09:49:22.830Z,14.79
2022-10-23T09:51:54.417Z,14.89
2022-10-23T09:54:24.063Z,15.05
2022-10-23T09:56:51.595Z,15.44
2022-10-23T09:59:24.284Z,15.49
2022-10-23T10:01:51.993Z,15.36
2022-10-23T10:04:18.948Z,15.38
2022-10-23T10:06:45.601Z,15.13
2022-10-23T10:09:14.170Z,15.20
2022-10-23T10:11:52.331Z,15.14
2022-10-23T10:14:36.112Z,15.00
2022-10-23T10:17:38.402Z,14.82
2022-10-23T10:20:42.602Z,14.82
2022-10-23T10:23:24.363Z,14.88
2022-10-23T10:26:18.978Z,14.80
2022-10-23T10:29:09.515Z,14.75
2022-10-23T10:32:02.955Z,14.76
2022-10-23T10:34:30.545Z,14.90
2022-10-23T10:37:00.175Z,14.75
2022-10-23T10:39:35.349Z,14.70
2022-10-23T10:42:38.928Z,14.63
2022-10-23T10:45:58.329Z,14.45
2022-10-23T10:48:49.742Z,14.31
2022-10-23T10:51:39.162Z,14.34
2022-10-23T10:54:19.084Z,14.34
2022-10-23T10:56:47.674Z,14.36
2022-10-23T10:59:22.478Z,14.31
2022-10-23T11:02:33.239Z,14.21
2022-10-23T11:05:15.330Z,14.17
2022-10-23T11:07:51.284Z,13.95
2022-10-23T11:10:19.104Z,14.02
2022-10-23T11:12:47.714Z,13.97
2022-10-23T11:15:41.254Z,14.13
2022-10-23T11:18:15.703Z,14.11
2022-10-23T11:20:50.947Z,13.93
2022-10-23T11:23:27.824Z,14.07
2022-10-23T11:26:06.603Z,13.89
2022-10-23T11:29:03.990Z,13.94
2022-10-23T11:31:38.932Z,14.15
2022-10-23T11:34:17.648Z,14.04
2022-10-23T11:36:49.959Z,14.18
2022-10-23T11:39:27.923Z,14.32
2022-10-23T11:42:05.097Z,14.64
2022-10-23T11:44:34.544Z,15.18
2022-10-23T11:47:06.561Z,15.69
2022-10-23T11:49:33.146Z,15.90
2022-10-23T11:52:01.696Z,15.84
2022-10-23T11:54:28.728Z,16.12
2022-10-23T11:57:10.342Z,16.18
2022-10-23T11:59:51.432Z,16.44
2022-10-23T12:02:40.551Z,16.54
2022-10-23T12:05:09.621Z,16.62
2022-10-23T12:07:37.516Z,17.04
2022-10-23T12:10:04.098Z,17.51
2022-10-23T12:12:40.881Z,17.88
2022-10-23T12:15:16.359Z,17.36
2022-10-23T12:17:43.907Z,17.29
2022-10-23T12:20:13.757Z,17.47
2022-10-23T12:23:02.131Z,17.05
2022-10-23T12:25:47.432Z,17.48
2022-10-23T12:28:40.211Z,17.00
2022-10-23T12:31:23.611Z,16.73
2022-10-23T12:34:01.601Z,16.72
2022-10-23T12:36:31.121Z,16.89
2022-10-23T12:38:58.750Z,16.85
2022-10-23T12:41:27.779Z,17.19
2022-10-23T12:44:02.915Z,17.39
2022-10-23T12:46:42.469Z,17.51
2022-10-23T12:49:18.119Z,17.58
2022-10-23T12:51:45.279Z,17.71
2022-10-23T12:54:20.147Z,17.41
2022-10-23T12:56:47.312Z,17.45
2022-10-23T12:59:16.940Z,17.68
2022-10-23T13:01:43.916Z,17.31
2022-10-23T13:04:10.819Z,17.79
2022-10-23T13:06:38.737Z,18.02
2022-10-23T13:09:06.663Z,17.86
2022-10-23T13:11:33.438Z,17.56
2022-10-23T13:14:00.048Z,16.96
2022-10-23T13:16:27.132Z,16.41
2022-10-23T13:18:54.479Z,16.79
2022-10-23T13:21:25.886Z,16.88
2022-10-23T13:23:52.918Z,16.87
2022-10-23T13:26:45.207Z,16.65
2022-10-23T13:29:21.615Z,16.48
2022-10-23T13:31:50.202Z,16.33
2022-10-23T13:34:29.695Z,16.63
2022-10-23T13:37:22.022Z,16.82
2022-10-23T13:40:18.985Z,16.83
2022-10-23T13:42:50.186Z,16.43
2022-10-23T13:45:21.277Z,16.27
2022-10-23T13:47:47.798Z,15.97
2022-10-23T13:50:14.452Z,15.66
2022-10-23T13:52:40.952Z,15.61
2022-10-23T13:55:20.959Z,15.40
2022-10-23T13:57:47.623Z,15.46
2022-10-23T14:00:15.311Z,15.32
2022-10-23T14:02:42.102Z,15.20
2022-10-23T14:05:09.360Z,15.26
2022-10-23T14:07:35.912Z,15.18
2022-10-23T14:10:02.453Z,15.04
2022-10-23T14:12:28.972Z,15.19
2022-10-23T14:14:55.474Z,14.90
2022-10-23T14:17:22.048Z,15.12
2022-10-23T14:19:48.557Z,15.04
2022-10-23T14:22:15.073Z,15.20
2022-10-23T14:27:08.168Z,15.37
2022-10-23T14:29:34.808Z,15.47
2022-10-23T14:32:01.404Z,15.50
2022-10-23T14:34:27.933Z,15.73
2022-10-23T14:37:07.975Z,15.70
2022-10-23T14:39:35.522Z,15.69
2022-10-23T14:42:02.014Z,15.46
2022-10-23T14:44:28.828Z,15.34
2022-10-23T14:46:55.482Z,15.20
2022-10-23T14:49:21.978Z,15.24
2022-10-23T14:51:48.492Z,15.09
2022-10-23T14:54:15.806Z,14.96
2022-10-23T14:56:42.459Z,14.64
2022-10-23T14:59:10.721Z,14.70
2022-10-23T15:01:47.232Z,14.74
2022-10-23T15:04:15.600Z,14.63
2022-10-23T15:06:42.874Z,14.50
2022-10-23T15:09:09.406Z,14.55
2022-10-23T15:11:37.434Z,14.69
2022-10-23T15:14:03.965Z,14.47
2022-10-23T15:16:30.783Z,14.36
2022-10-23T15:18:57.614Z,14.26
2022-10-23T15:21:24.206Z,14.00
2022-10-23T15:23:50.805Z,14.05
2022-10-23T15:26:22.900Z,13.96
2022-10-23T15:28:57.482Z,13.80
2022-10-23T15:31:54.562Z,13.58
2022-10-23T15:34:23.673Z,13.67
2022-10-23T15:36:50.791Z,13.58
2022-10-23T15:39:20.830Z,13.36
2022-10-23T15:41:48.068Z,13.24
2022-10-23T15:44:17.116Z,13.29
2022-10-23T15:46:43.886Z,13.22
2022-10-23T15:49:10.657Z,13.19
2022-10-23T15:51:37.999Z,13.08
2022-10-23T15:54:08.964Z,13.00
2022-10-23T15:56:35.625Z,12.81
2022-10-23T15:59:02.800Z,12.77
2022-10-23T16:01:29.471Z,12.68
2022-10-23T16:03:56.107Z,12.63
2022-10-23T16:06:23.008Z,12.44
2022-10-23T16:08:49.582Z,12.50
2022-10-23T16:11:24.663Z,12.44
2022-10-23T16:13:51.435Z,12.39
2022-10-23T16:16:18.283Z,12.35
2022-10-23T16:18:45.771Z,12.24
2022-10-23T16:21:20.225Z,12.09
2022-10-23T16:23:48.673Z,12.06
2022-10-23T16:26:17.572Z,12.08
2022-10-23T16:28:47.136Z,12.05
2022-10-23T16:31:20.365Z,12.02
2022-10-23T16:33:48.121Z,11.98
2022-10-23T16:36:14.739Z,12.00
2022-10-23T16:38:41.309Z,12.08
2022-10-23T16:41:07.915Z,12.01
2022-10-23T16:43:34.441Z,12.18
2022-10-23T16:46:21.674Z,12.16
2022-10-23T16:48:50.107Z,12.13
2022-10-23T16:51:19.385Z,12.29
2022-10-23T16:53:46.470Z,12.12
2022-10-23T16:56:18.071Z,11.97
2022-10-23T16:58:44.997Z,11.78
2022-10-23T17:01:19.123Z,11.62
2022-10-23T17:03:48.308Z,11.53
2022-10-23T17:06:18.708Z,11.38
2022-10-23T17:08:45.935Z,11.42
2022-10-23T17:11:18.048Z,11.34
2022-10-23T17:13:47.284Z,11.40
2022-10-23T17:16:21.235Z,11.21
2022-10-23T17:18:48.478Z,11.21
2022-10-23T17:21:16.810Z,11.14
2022-10-23T17:23:43.804Z,11.06
2022-10-23T17:26:12.561Z,10.99
2022-10-23T17:28:43.310Z,10.95
2022-10-23T17:31:21.016Z,10.93
2022-10-23T17:33:49.199Z,10.85
2022-10-23T17:36:16.448Z,10.82
2022-10-23T17:39:03.283Z,10.75
2022-10-23T17:41:29.786Z,10.82
2022-10-23T17:43:57.611Z,10.76
2022-10-23T17:46:25.063Z,10.93
2022-10-23T17:48:51.569Z,10.74
2022-10-23T17:51:20.951Z,10.72
2022-10-23T17:53:49.191Z,10.93
2022-10-23T17:56:27.607Z,10.87
2022-10-23T17:58:56.571Z,11.11
2022-10-23T18:01:25.141Z,11.03
2022-10-23T18:03:52.830Z,10.87
2022-10-23T18:06:28.878Z,10.83
2022-10-23T18:08:56.633Z,10.88
2022-10-23T18:11:25.360Z,10.68
2022-10-23T18:13:52.294Z,10.51
2022-10-23T18:16:19.363Z,10.43
2022-10-23T18:18:51.746Z,10.35
2022-10-23T18:21:20.104Z,10.29
2022-10-23T18:23:46.936Z,10.43
2022-10-23T18:26:18.781Z,10.38
2022-10-23T18:28:47.486Z,10.46
2022-10-23T18:31:15.779Z,10.52
2022-10-23T18:33:42.951Z,10.59
2022-10-23T18:36:13.885Z,10.56
2022-10-23T18:38:40.730Z,10.36
2022-10-23T18:41:07.197Z,10.43
2022-10-23T18:43:44.894Z,10.51
2022-10-23T18:46:14.930Z,10.51
2022-10-23T18:48:43.382Z,10.69
2022-10-23T18:51:15.876Z,10.72
2022-10-23T18:53:43.247Z,10.69
2022-10-23T18:56:09.701Z,10.61
2022-10-23T18:58:36.135Z,10.56
2022-10-23T19:01:02.731Z,10.42
2022-10-23T19:03:29.319Z,10.41
2022-10-23T19:05:55.850Z,10.51
2022-10-23T19:08:22.528Z,10.48
2022-10-23T19:10:50.520Z,10.45
2022-10-23T19:13:17.120Z,10.51
2022-10-23T19:15:44.366Z,10.42
2022-10-23T19:18:11.089Z,10.29
2022-10-23T19:20:37.602Z,10.24
2022-10-23T19:23:05.674Z,10.20
2022-10-23T19:25:34.558Z,10.15
2022-10-23T19:28:02.310Z,10.15
2022-10-23T19:30:29.382Z,10.06
2022-10-23T19:32:55.912Z,10.08
2022-10-23T19:35:22.656Z,10.11
2022-10-23T19:37:49.544Z,10.40
2022-10-23T19:40:16.254Z,10.29
2022-10-23T19:42:43.138Z,10.25
2022-10-23T19:45:12.240Z,10.41
2022-10-23T19:47:39.298Z,10.51
2022-10-23T19:50:06.706Z,10.49
2022-10-23T19:52:34.563Z,10.41
2022-10-23T19:55:04.580Z,10.41
2022-10-23T19:57:33.855Z,10.46
2022-10-23T20:00:01.131Z,10.21
2022-10-23T20:02:28.251Z,10.32
2022-10-23T20:04:55.229Z,10.26
2022-10-23T20:07:21.680Z,10.14
2022-10-23T20:09:48.723Z,10.20
2022-10-23T20:12:15.218Z,10.30
2022-10-23T20:14:41.694Z,10.26
2022-10-23T20:17:08.315Z,10.22
2022-10-23T20:19:35.007Z,10.15
2022-10-23T20:22:01.483Z,10.01
2022-10-23T20:24:28.030Z,10.00
2022-10-23T20:26:55.687Z,9.96
2022-10-23T20:29:22.931Z,9.97
2022-10-23T20:31:52.914Z,9.90
2022-10-23T20:34:19.582Z,9.87
2022-10-23T20:36:48.808Z,9.79
2022-10-23T20:39:18.262Z,9.77
2022-10-23T20:41:45.138Z,9.70
2022-10-23T20:44:13.904Z,9.59
2022-10-23T20:46:40.827Z,9.65
2022-10-23T20:49:07.392Z,9.79
2022-10-23T20:51:35.723Z,9.64
2022-10-23T20:54:02.551Z,9.55
2022-10-23T20:56:34.379Z,9.56
2022-10-23T20:59:12.201Z,9.52
2022-10-23T21:01:50.633Z,9.64
2022-10-23T21:04:20.093Z,9.63
2022-10-23T21:07:08.336Z,9.57
2022-10-23T21:09:33.308Z,9.57
2022-10-23T21:11:59.765Z,9.70
2022-10-23T21:14:27.185Z,9.63
2022-10-23T21:16:53.617Z,9.58
2022-10-23T21:19:20.071Z,9.72
2022-10-23T21:21:46.819Z,9.68
2022-10-23T21:24:17.038Z,9.51
2022-10-23T21:26:44.500Z,9.40
2022-10-23T21:29:20.098Z,9.29
2022-10-23T21:31:57.968Z,9.29
2022-10-23T21:34:25.590Z,9.31
2022-10-23T21:37:12.889Z,9.30
2022-10-23T21:39:38.714Z,9.41
2022-10-23T21:42:05.215Z,9.53
2022-10-23T21:44:31.648Z,9.47
2022-10-23T21:46:58.102Z,9.49
2022-10-23T21:49:24.540Z,9.52
2022-10-23T21:51:51.018Z,9.47
2022-10-23T21:54:17.513Z,9.43
2022-10-23T21:56:45.375Z,9.46
2022-10-23T21:59:22.610Z,9.51
2022-10-23T22:01:49.486Z,9.68
2022-10-23T22:04:17.487Z,9.73
2022-10-23T22:06:44.978Z,9.67
2022-10-23T22:09:18.970Z,9.62
2022-10-23T22:11:45.494Z,9.51
2022-10-23T22:14:11.951Z,9.50
2022-10-23T22:16:38.459Z,9.48
2022-10-23T22:19:04.931Z,9.42
2022-10-23T22:21:31.755Z,9.42
2022-10-23T22:23:59.859Z,9.51
2022-10-23T22:26:34.239Z,9.55
2022-10-23T22:29:06.421Z,9.65
2022-10-23T22:31:34.134Z,9.66
2022-10-23T22:34:13.097Z,9.67
2022-10-23T22:36:48.593Z,9.71
2022-10-23T22:39:15.040Z,9.77
2022-10-23T22:41:43.570Z,9.81
2022-10-23T22:44:11.584Z,9.80
2022-10-23T22:46:38.468Z,9.98
2022-10-23T22:51:32.418Z,10.68
2022-10-23T22:53:59.402Z,10.69
2022-10-23T22:56:27.922Z,10.71
2022-10-23T22:58:55.127Z,10.52
2022-10-23T23:01:27.793Z,10.40
2022-10-23T23:03:54.853Z,10.26
2022-10-23T23:06:21.881Z,10.22
2022-10-23T23:08:49.792Z,10.16
2022-10-23T23:11:17.710Z,10.64
2022-10-23T23:13:44.848Z,10.26
2022-10-23T23:16:28.587Z,10.05
2022-10-23T23:18:59.747Z,10.20
2022-10-23T23:21:26.712Z,10.51
2022-10-23T23:23:53.422Z,10.44
2022-10-23T23:26:20.039Z,10.21
2022-10-23T23:28:50.063Z,9.98
2022-10-23T23:31:18.961Z,9.86
2022-10-23T23:33:45.638Z,10.23
2022-10-23T23:36:13.890Z,10.01
2022-10-23T23:38:41.355Z,9.91
2022-10-23T23:41:12.511Z,9.73
2022-10-23T23:43:38.951Z,9.71
2022-10-23T23:46:05.698Z,9.51
2022-10-23T23:48:32.232Z,9.54
2022-10-23T23:50:58.655Z,9.55
2022-10-23T23:53:25.347Z,9.81
2022-10-23T23:55:51.789Z,9.85
2022-10-23T23:58:18.202Z,9.62
